»·PEaware :: UAL745 KSEA-KRNO

UAL745 :: KSEA-KRNO

FLIGHT INFORMATION

Flight Status: Arrived
Operator:
United Airlines
More flights by this operator :: More flights under this callsign
Pilot: Max W. (2591)
Aircraft: AIRBUS A320
(A320)
More flights by this aircraft type
Origin: KSEA Seattle-Tacoma Intl
United States
Destination: KRNO Reno/Tahoe Intl
United States
More flights between these airports :: More routes between these airports
Route: SUMMA1 LKV HARTT HARTT1
File this flight plan on PilotEdge
Remarks:
Altitude:
(Current/Filed)
31,000ft
Speed:
(Current/Filed)
450kts
Departed: 24-Oct-19 10:40 AM
Arrived: 24-Oct-19 11:49 AM
Distance/Time
Traveled:
490nm/1:09
Distance/Time
To Go:
Arrived

Flight Plot

Page will automatically refresh every two minutes.

Flight plan parsing failed; only flown route is shown


Map Options




Map Legend


Flown Route
Filed Route
Departure Airport
Arrival Airport
Navaid (VOR, NDB)
Fix

Horizontal Profiles

Position Reports

Time Latitude Longitude Heading Altitude Ground
Speed
24-Oct-19 09:56 47.446944 -122.304258 181 358ft 0kts
24-Oct-19 09:57 47.446944 -122.304258 181 358ft 0kts
24-Oct-19 09:58 47.446944 -122.304258 181 358ft 0kts
24-Oct-19 09:59 47.446944 -122.304258 181 358ft 0kts
24-Oct-19 10:00 47.446944 -122.304258 181 358ft 0kts
24-Oct-19 10:01 47.446944 -122.304258 181 358ft 0kts
24-Oct-19 10:02 47.446944 -122.304258 181 358ft 0kts
24-Oct-19 10:03 47.446944 -122.304258 181 358ft 0kts
24-Oct-19 10:04 47.446944 -122.304258 181 358ft 0kts
24-Oct-19 10:05 47.446944 -122.304258 181 358ft 0kts
24-Oct-19 10:05 47.446944 -122.304258 181 358ft 0kts
24-Oct-19 10:07 47.446944 -122.304258 181 358ft 0kts
24-Oct-19 10:08 47.446944 -122.304258 181 358ft 0kts
24-Oct-19 10:08 47.446944 -122.304258 181 358ft 0kts
24-Oct-19 10:09 47.446944 -122.304258 181 358ft 0kts
24-Oct-19 10:10 47.446944 -122.304258 181 358ft 0kts
24-Oct-19 10:12 47.446944 -122.304258 181 358ft 0kts
24-Oct-19 10:12 47.446944 -122.304258 181 358ft 0kts
24-Oct-19 10:13 47.446944 -122.304258 181 358ft 0kts
24-Oct-19 10:14 47.446944 -122.304258 181 358ft 0kts
24-Oct-19 10:15 47.446944 -122.304258 181 358ft 0kts
24-Oct-19 10:16 47.446944 -122.304258 181 358ft 0kts
24-Oct-19 10:17 47.446944 -122.304258 181 358ft 0kts
24-Oct-19 10:18 47.446945 -122.304258 181 358ft 0kts
24-Oct-19 10:19 47.446945 -122.304258 181 358ft 0kts
24-Oct-19 10:20 47.446945 -122.304258 181 358ft 0kts
24-Oct-19 10:21 47.446945 -122.304258 181 358ft 0kts
24-Oct-19 10:22 47.446945 -122.304258 181 358ft 0kts
24-Oct-19 10:23 47.446945 -122.304258 181 358ft 0kts
24-Oct-19 10:24 47.446945 -122.304258 181 358ft 0kts
24-Oct-19 10:25 47.447405 -122.304241 181 358ft 2kts
24-Oct-19 10:26 47.447600 -122.303744 289 358ft 0kts
24-Oct-19 10:27 47.447600 -122.303744 289 358ft 0kts
24-Oct-19 10:28 47.447643 -122.303987 278 357ft 3kts
24-Oct-19 10:29 47.447646 -122.304902 269 357ft 0kts
24-Oct-19 10:30 47.447646 -122.304902 269 357ft 0kts
24-Oct-19 10:31 47.447646 -122.304902 269 357ft 0kts
24-Oct-19 10:32 47.447646 -122.304902 269 357ft 0kts
24-Oct-19 10:33 47.447646 -122.304958 270 357ft 0kts
24-Oct-19 10:34 47.447646 -122.305123 270 358ft 0kts
24-Oct-19 10:35 47.449776 -122.306229 3 358ft 17kts
24-Oct-19 10:36 47.455118 -122.306215 1 357ft 17kts
24-Oct-19 10:37 47.460480 -122.306141 358 357ft 20kts
24-Oct-19 10:38 47.463417 -122.307664 202 358ft 22kts
24-Oct-19 10:39 47.426902 -122.313316 204 1995ft 180kts
24-Oct-19 10:40 47.370434 -122.319944 175 4653ft 245kts
24-Oct-19 10:41 47.294460 -122.313646 176 7195ft 292kts
24-Oct-19 10:42 47.213279 -122.287633 161 10103ft 313kts
24-Oct-19 10:43 47.124157 -122.242104 163 11737ft 373kts
24-Oct-19 10:44 47.029532 -122.194259 163 13031ft 412kts
24-Oct-19 10:45 46.942615 -122.150382 162 14705ft 419kts
24-Oct-19 10:46 46.837108 -122.097430 161 15018ft 417kts
24-Oct-19 10:47 46.726253 -122.042125 161 15823ft 426kts
24-Oct-19 10:48 46.612729 -121.986403 165 17583ft 436kts
24-Oct-19 10:49 46.493650 -121.940331 166 19170ft 447kts
24-Oct-19 10:50 46.372243 -121.893355 166 20621ft 457kts
24-Oct-19 10:51 46.247882 -121.846555 167 21979ft 465kts
24-Oct-19 10:52 46.122082 -121.798604 168 23222ft 473kts
24-Oct-19 10:53 45.994465 -121.750127 168 24490ft 477kts
24-Oct-19 10:54 45.871716 -121.703857 168 25486ft 484kts
24-Oct-19 10:55 45.740854 -121.654770 168 26435ft 490kts
24-Oct-19 10:56 45.608508 -121.605343 168 27568ft 490kts
24-Oct-19 10:57 45.477050 -121.556496 169 28801ft 488kts
24-Oct-19 10:58 45.346264 -121.508148 168 30025ft 485kts
24-Oct-19 10:59 45.216174 -121.460288 169 31223ft 482kts
24-Oct-19 11:00 45.086621 -121.412855 169 31495ft 481kts
24-Oct-19 11:01 44.956664 -121.365512 167 31498ft 484kts
24-Oct-19 11:02 44.839790 -121.323090 168 31486ft 483kts
24-Oct-19 11:03 44.709807 -121.276134 168 31471ft 483kts
24-Oct-19 11:04 44.579472 -121.229272 168 31482ft 483kts
24-Oct-19 11:05 44.449182 -121.182639 168 31491ft 484kts
24-Oct-19 11:06 44.319036 -121.136275 168 31485ft 485kts
24-Oct-19 11:07 44.188045 -121.089823 168 31484ft 487kts
24-Oct-19 11:08 44.056392 -121.043349 168 31486ft 489kts
24-Oct-19 11:09 43.924260 -120.996918 167 31487ft 491kts
24-Oct-19 11:10 43.800578 -120.953648 167 31484ft 492kts
24-Oct-19 11:11 43.667849 -120.907417 167 31488ft 493kts
24-Oct-19 11:12 43.535038 -120.861369 167 31489ft 493kts
24-Oct-19 11:13 43.402476 -120.815617 167 31485ft 493kts
24-Oct-19 11:14 43.269662 -120.769985 167 31480ft 493kts
24-Oct-19 11:15 43.136621 -120.724479 167 31480ft 493kts
24-Oct-19 11:16 43.003959 -120.679311 167 31484ft 493kts
24-Oct-19 11:17 42.879317 -120.637048 166 31506ft 491kts
24-Oct-19 11:18 42.747594 -120.592571 166 31488ft 487kts
24-Oct-19 11:19 42.616224 -120.548420 166 31462ft 486kts
24-Oct-19 11:20 42.484997 -120.504733 167 31465ft 487kts
24-Oct-19 11:21 42.352916 -120.465098 167 31480ft 487kts
24-Oct-19 11:22 42.220793 -120.425578 167 31492ft 488kts
24-Oct-19 11:23 42.088385 -120.386146 167 31496ft 488kts
24-Oct-19 11:24 41.962705 -120.348874 168 31494ft 488kts
24-Oct-19 11:25 41.837104 -120.311775 168 31486ft 487kts
24-Oct-19 11:26 41.705177 -120.272967 168 31476ft 486kts
24-Oct-19 11:27 41.572985 -120.234250 168 31472ft 486kts
24-Oct-19 11:28 41.440831 -120.195703 168 31476ft 487kts
24-Oct-19 11:29 41.308762 -120.157340 168 31479ft 487kts
24-Oct-19 11:30 41.176329 -120.119032 168 31481ft 487kts
24-Oct-19 11:31 41.044246 -120.080982 167 31495ft 486kts
24-Oct-19 11:32 40.912751 -120.043242 166 30789ft 482kts
24-Oct-19 11:33 40.790747 -120.006670 164 27710ft 491kts
24-Oct-19 11:34 40.658209 -119.963873 164 24755ft 486kts
24-Oct-19 11:35 40.529044 -119.922311 163 22189ft 471kts
24-Oct-19 11:36 40.404036 -119.882268 163 19608ft 455kts
24-Oct-19 11:37 40.283610 -119.843838 163 17036ft 438kts
24-Oct-19 11:38 40.168147 -119.807125 163 14578ft 418kts
24-Oct-19 11:39 40.062079 -119.773496 163 13619ft 366kts
24-Oct-19 11:40 39.968623 -119.768022 176 12587ft 301kts
24-Oct-19 11:41 39.895574 -119.765599 174 11126ft 273kts
24-Oct-19 11:42 39.823453 -119.767476 177 10314ft 253kts
24-Oct-19 11:43 39.755862 -119.768983 176 9438ft 244kts
24-Oct-19 11:44 39.687669 -119.768946 176 7942ft 240kts
24-Oct-19 11:45 39.623447 -119.769100 176 6705ft 220kts
24-Oct-19 11:46 39.567852 -119.769188 177 5566ft 182kts
24-Oct-19 11:47 39.521325 -119.769118 180 4661ft 158kts
24-Oct-19 11:48 39.493164 -119.769795 222 4418ft 25kts

Navigation Log

Ident Type
Flight plan parsing failed, navigation log unavailable